Edith Kirk — 2DST9 — position and weather

sailwx.info

Track history (hours):
 
Tides and Currents Weather Stations Pressure Air Temp Water Temp Dewpoint Dewpoint Depression Visibility Wind Speed Wind Dir Waves Ship Positions

Edith Kirk

Last reported at 2017-May-26 15:59 UTC. Time now 2017-May-27 09:49 UTC.
Position N 37°31' W 000°55'.

Length 183 m; draft 10.8 m.

Type: Ship. MMSI: 235081745.

Date/timePositionNaut miles runAvg speedWind from/ knotsBaromVisibWave heightAir tempDewpointWater temp
2017-May-26 15:59N 37°31' W 000°55'613.5
2017-May-26 15:30N 37°30' W 000°47'713.4
2017-May-26 15:00N 37°30' W 000°39'713.5
2017-May-26 14:30N 37°29' W 000°30'1413.6
2017-May-26 13:29N 37°30' W 000°13'713.6
2017-May-26 13:00N 37°30' W 000°05'713.8
2017-May-26 12:30N 37°30' E 000°04'713.9
2017-May-26 12:00N 37°30' E 000°13'713.7
2017-May-26 11:30N 37°31' E 000°22'713.8
2017-May-26 11:00N 37°31' E 000°30'713.5
2017-May-26 10:30N 37°31' E 000°39'713.6
2017-May-26 10:00N 37°31' E 000°47'713.5
2017-May-26 09:30N 37°32' E 000°56'713.4
2017-May-26 08:57N 37°32' E 001°05'713.4
2017-May-26 08:26N 37°33' E 001°14'613.5
2017-May-26 07:58N 37°33' E 001°22'613.4
2017-May-26 07:30N 37°33' E 001°30'713.5
2017-May-26 06:59N 37°34' E 001°38'713.5
2017-May-26 06:31N 37°34' E 001°47'713.7
2017-May-26 06:00N 37°34' E 001°55'713.7
2017-May-26 05:30N 37°34' E 002°04'713.6
2017-May-26 05:00N 37°35' E 002°12'713.5
2017-May-26 04:30N 37°35' E 002°21'713.4
2017-May-26 04:01N 37°35' E 002°29'713.3
2017-May-26 03:30N 37°35' E 002°38'713.3
2017-May-26 03:00N 37°36' E 002°46'713.2
2017-May-26 02:30N 37°36' E 002°55'713.4
2017-May-26 02:00N 37°36' E 003°03'713.3
2017-May-26 01:31N 37°37' E 003°11'713.3
2017-May-26 00:59N 37°37' E 003°20'613.2
2017-May-26 00:31N 37°37' E 003°28'713.1
2017-May-26 00:00N 37°38' E 003°36'713.1
2017-May-25 23:31N 37°38' E 003°45'713.1
2017-May-25 23:00N 37°39' E 003°53'713.1
2017-May-25 22:30N 37°39' E 004°01'713.1
2017-May-25 22:00N 37°39' E 004°10'713.1
2017-May-25 21:29N 37°39' E 004°18'613.0
2017-May-25 21:00N 37°40' E 004°26'913.0
2017-May-25 20:17N 37°40' E 004°38'413.1
2017-May-25 20:00N 37°40' E 004°43'713.1
2017-May-25 19:28N 37°40' E 004°51'813.1
2017-May-25 18:52N 37°41' E 005°01'513.1
2017-May-25 18:30N 37°41' E 005°07'713.2
2017-May-25 17:56N 37°41' E 005°17'613.1
2017-May-25 17:30N 37°42' E 005°24'1213.2
2017-May-25 16:37N 37°42' E 005°39'213.2
2017-May-25 16:29N 37°42' E 005°41'713.2
2017-May-25 15:59N 37°42' E 005°49'1313.2
2017-May-25 14:58N 37°43' E 006°06'3613.1
2017-May-25 12:11N 37°45' E 006°52'513.2
2017-May-25 11:49N 37°45' E 006°58'513.3
2017-May-25 11:26N 37°45' E 007°05'613.4
2017-May-25 10:58N 37°45' E 007°13'1213.4
2017-May-25 10:04N 37°47' E 007°28'113.3
2017-May-25 10:00N 37°47' E 007°29'2213.3
2017-May-25 08:21N 37°48' E 007°57'513.3
2017-May-25 08:00N 37°49' E 008°03'713.4
2017-May-25 07:30N 37°49' E 008°11'713.1
2017-May-25 07:00N 37°49' E 008°19'713.2
2017-May-25 06:29N 37°48' E 008°28'613.3
2017-May-25 06:01N 37°49' E 008°36'713.0
2017-May-25 05:30N 37°49' E 008°44'712.9
2017-May-25 05:00N 37°49' E 008°53'612.6
2017-May-25 04:31N 37°49' E 009°00'812.7
2017-May-25 03:51N 37°47' E 009°10'512.5
2017-May-25 03:26N 37°46' E 009°17'612.1
2017-May-25 02:57N 37°45' E 009°24'612.2
2017-May-25 02:30N 37°44' E 009°31'612.7
2017-May-25 02:00N 37°43' E 009°39'713.1
2017-May-25 01:30N 37°41' E 009°47'713.0
2017-May-25 00:59N 37°40' E 009°55'613.0
2017-May-25 00:30N 37°39' E 010°03'912.9
2017-May-24 23:49N 37°39' E 010°14'412.6
2017-May-24 23:29N 37°39' E 010°19'1412.3
2017-May-24 22:22N 37°35' E 010°36'1512.8
2017-May-24 21:11N 37°32' E 010°55'512.8
2017-May-24 20:49N 37°31' E 011°01'412.5
2017-May-24 20:30N 37°29' E 011°06'1612.7
2017-May-24 19:15N 37°22' E 011°23'513.0
2017-May-24 18:53N 37°20' E 011°28'3013.3
2017-May-24 16:40N 37°08' E 012°02'513.3
2017-May-24 16:16N 37°06' E 012°08'1413.2
2017-May-24 15:14N 37°00' E 012°24'412.7
2017-May-24 14:57N 36°59' E 012°28'612.3
2017-May-24 14:30N 36°56' E 012°34'1212.4
2017-May-24 13:30N 36°51' E 012°48'712.9
2017-May-24 13:00N 36°48' E 012°56'812.9
2017-May-24 12:23N 36°45' E 013°05'513.0
2017-May-24 12:00N 36°43' E 013°10'713.0
2017-May-24 11:30N 36°40' E 013°18'613.0
2017-May-24 11:00N 36°38' E 013°25'612.9
2017-May-24 10:30N 36°35' E 013°33'613.0
2017-May-24 10:00N 36°32' E 013°40'612.8
2017-May-24 09:30N 36°30' E 013°47'612.8
2017-May-24 09:00N 36°27' E 013°54'612.6
2017-May-24 08:30N 36°24' E 014°01'612.6
2017-May-24 08:00N 36°22' E 014°09'612.6
2017-May-24 07:30N 36°19' E 014°16'612.5
2017-May-24 07:00N 36°17' E 014°23'612.7
2017-May-24 06:30N 36°14' E 014°30'612.2
2017-May-24 06:00N 36°11' E 014°36'612.8
2017-May-24 05:30N 36°06' E 014°41'612.8
2017-May-24 05:01N 36°01' E 014°47'3 5.3
2017-May-24 04:30N 35°59' E 014°49'0 0.4
2017-May-24 04:00N 35°59' E 014°49'0 0.3
2017-May-24 03:30N 35°59' E 014°49'1 2.9
2017-May-24 03:00N 35°59' E 014°50'0 0.1
2017-May-24 02:31N 35°59' E 014°50'0 0.0
2017-May-24 02:00N 35°59' E 014°50'0 0.0
2017-May-24 01:30N 35°59' E 014°50'0 0.1
2017-May-24 01:00N 35°59' E 014°50'0 0.0
2017-May-24 00:30N 35°59' E 014°50'0 0.0
2017-May-24 00:00N 35°59' E 014°50'0 0.0
2017-May-23 23:27N 35°59' E 014°50'0 0.1
2017-May-23 22:58N 35°59' E 014°50'0 0.1
2017-May-23 21:59N 35°58' E 014°50'0 0.0
2017-May-23 21:30N 35°58' E 014°50'0 0.0
2017-May-23 21:01N 35°58' E 014°50'0 0.0
2017-May-23 20:30N 35°58' E 014°50'0 0.0
2017-May-23 20:00N 35°58' E 014°50'0 0.0
2017-May-23 19:30N 35°58' E 014°50'0 0.0
2017-May-23 19:00N 35°58' E 014°50'0 0.1
2017-May-23 18:29N 35°58' E 014°50'0 0.0
2017-May-23 17:44N 35°58' E 014°50'0 0.0
2017-May-23 17:29N 35°58' E 014°50'0 0.1
2017-May-23 17:00N 35°58' E 014°50'0 0.0
2017-May-23 16:30N 35°58' E 014°50'0 0.0
2017-May-23 16:00N 35°58' E 014°50'0 0.0
2017-May-23 15:30N 35°58' E 014°50'0 0.0
2017-May-23 15:00N 35°58' E 014°50'0 0.0
2017-May-23 14:30N 35°58' E 014°50'0 0.0
2017-May-23 13:30N 35°58' E 014°50'0 0.0
2017-May-23 13:00N 35°58' E 014°50'0 0.0
2017-May-23 12:30N 35°58' E 014°50'0 0.1
2017-May-23 12:00N 35°58' E 014°50'0 0.1
2017-May-23 11:30N 35°58' E 014°50'0 0.0
2017-May-23 11:00N 35°58' E 014°50'0 0.0
2017-May-23 10:30N 35°58' E 014°50'0 0.0
2017-May-23 10:00N 35°58' E 014°50'0 0.0
2017-May-23 09:31N 35°58' E 014°50'0 0.0
2017-May-23 09:00N 35°58' E 014°50'0 0.0
2017-May-23 08:30N 35°58' E 014°50'0 0.0
2017-May-23 08:00N 35°59' E 014°50'0 0.0
2017-May-23 07:30N 35°59' E 014°50'0 0.0
2017-May-23 07:00N 35°59' E 014°50'0 0.0
2017-May-23 06:30N 35°59' E 014°50'0 0.0
2017-May-23 06:00N 35°59' E 014°50'0 0.1
2017-May-23 05:30N 35°59' E 014°50'1 1.2
2017-May-23 05:00N 35°59' E 014°50'1 2.7
2017-May-23 04:30N 36°00' E 014°49'2 4.8
2017-May-23 04:00N 36°02' E 014°47'2 4.3
2017-May-23 03:30N 36°03' E 014°45'0 0.4
2017-May-23 03:00N 36°03' E 014°45'0 0.3
2017-May-23 02:30N 36°03' E 014°44'0 0.4
2017-May-23 02:00N 36°03' E 014°44'0 0.1
2017-May-23 01:30N 36°03' E 014°44'510.1
2017-May-23 01:00N 36°00' E 014°49'3 6.9
2017-May-23 00:31N 35°58' E 014°51'0 0.1
2017-May-23 00:00N 35°58' E 014°52'0 0.1
2017-May-22 23:25N 35°58' E 014°52'0 0.0
2017-May-22 22:58N 35°58' E 014°52'0 0.1
2017-May-22 22:25N 35°58' E 014°52'0 0.0
2017-May-22 22:00N 35°58' E 014°52'0 0.0
2017-May-22 21:30N 35°58' E 014°52'0 0.0
2017-May-22 21:01N 35°58' E 014°52'0 0.0
2017-May-22 20:27N 35°58' E 014°52'0 0.0
2017-May-22 20:01N 35°58' E 014°52'0 0.0
2017-May-22 19:30N 35°58' E 014°52'0 0.0
2017-May-22 19:01N 35°58' E 014°52'0 0.0
2017-May-22 18:30N 35°58' E 014°52'0 0.0
2017-May-22 18:00N 35°58' E 014°52'0 0.0
2017-May-22 17:30N 35°58' E 014°52'0 0.0
2017-May-22 17:00N 35°58' E 014°52'0 0.0
2017-May-22 16:31N 35°58' E 014°52'0 0.0
2017-May-22 16:00N 35°58' E 014°52'0 0.0
2017-May-22 15:28N 35°58' E 014°52'0 0.0
2017-May-22 15:00N 35°58' E 014°52'0 0.0
2017-May-22 14:00N 35°58' E 014°52'0 0.0
2017-May-22 13:30N 35°58' E 014°52'0 0.0
2017-May-22 13:01N 35°58' E 014°52'0 0.0
2017-May-22 12:30N 35°58' E 014°52'0 0.0
2017-May-22 12:00N 35°58' E 014°52'0 0.0
2017-May-22 11:27N 35°58' E 014°52'0 0.0
2017-May-22 11:00N 35°58' E 014°52'0 0.0
2017-May-22 10:30N 35°58' E 014°52'0 0.0
2017-May-22 10:00N 35°58' E 014°52'0 0.0
2017-May-22 09:30N 35°58' E 014°52'0 0.0
2017-May-22 09:00N 35°58' E 014°52'0 0.0
2017-May-22 08:24N 35°58' E 014°52'0 0.0
2017-May-22 08:00N 35°58' E 014°52'0 0.0
2017-May-22 07:30N 35°58' E 014°52'0 0.0
2017-May-22 07:00N 35°58' E 014°52'0 0.0
2017-May-22 06:30N 35°58' E 014°52'0 0.0
2017-May-22 06:00N 35°58' E 014°52'0 0.0
2017-May-22 05:30N 35°58' E 014°52'0 0.0
2017-May-22 05:00N 35°58' E 014°52'0 0.0
2017-May-22 04:30N 35°58' E 014°52'0 0.0
2017-May-22 04:00N 35°58' E 014°52'0 0.0
2017-May-22 03:31N 35°58' E 014°52'0 0.1
2017-May-22 02:57N 35°58' E 014°52'0 0.0
2017-May-22 02:12N 35°58' E 014°52'0 0.0
2017-May-22 01:57N 35°58' E 014°52'0 0.0
2017-May-22 01:30N 35°58' E 014°52'0 0.0
2017-May-22 01:00N 35°58' E 014°52'0 0.0
2017-May-22 00:30N 35°58' E 014°52'0 0.0
2017-May-22 00:00N 35°58' E 014°52'0 0.0
2017-May-21 23:31N 35°58' E 014°52'0 0.0
2017-May-21 23:00N 35°58' E 014°52'0 0.2
2017-May-21 22:30N 35°58' E 014°52'2 4.2
2017-May-21 22:01N 35°56' E 014°53'510.0
2017-May-21 21:30N 35°51' E 014°55'1611.0
2017-May-21 20:03N 35°47' E 014°35'3 0.1
2017-May-20 08:33N 35°49' E 014°33'0 1.9
2017-May-20 08:30N 35°49' E 014°33'2 4.6
2017-May-20 08:00N 35°48' E 014°35'4 8.5
2017-May-20 07:30N 35°47' E 014°40'510.3
2017-May-20 07:00N 35°46' E 014°47'3 6.3
2017-May-20 06:29N 35°46' E 014°51'5 6.9
2017-May-20 05:49N 35°49' E 014°55'612.2
2017-May-20 05:21N 35°53' E 014°59'1112.3
2017-May-20 04:29N 36°02' E 015°06'1912.4
2017-May-20 02:57N 36°19' E 015°18'711.9
2017-May-20 02:19N 36°25' E 015°23'411.5
2017-May-20 02:00N 36°28' E 015°25'1011.5
2017-May-20 01:10N 36°38' E 015°27'211.9
2017-May-20 01:00N 36°40' E 015°27'611.9
2017-May-20 00:30N 36°46' E 015°28'711.8
2017-May-19 23:57N 36°52' E 015°30'612.0
2017-May-19 23:27N 36°58' E 015°32'  
Track history (hours):
 
Tides and Currents Weather Stations Pressure Air Temp Water Temp Dewpoint Dewpoint Depression Visibility Wind Speed Wind Dir Waves Ship Positions

Edith Kirk

Last reported at 2017-May-26 15:59 UTC. Time now 2017-May-27 09:49 UTC.
Position N 37°31' W 000°55'.

Length 183 m; draft 10.8 m.

Type: Ship. MMSI: 235081745.

Date/timePositionNaut miles runAvg speedWind from/ knotsBaromVisibWave heightAir tempDewpointWater temp
2017-May-26 15:59N 37°31' W 000°55'613.5
2017-May-26 15:30N 37°30' W 000°47'713.4
2017-May-26 15:00N 37°30' W 000°39'713.5
2017-May-26 14:30N 37°29' W 000°30'1413.6
2017-May-26 13:29N 37°30' W 000°13'713.6
2017-May-26 13:00N 37°30' W 000°05'713.8
2017-May-26 12:30N 37°30' E 000°04'713.9
2017-May-26 12:00N 37°30' E 000°13'713.7
2017-May-26 11:30N 37°31' E 000°22'713.8
2017-May-26 11:00N 37°31' E 000°30'713.5
2017-May-26 10:30N 37°31' E 000°39'713.6
2017-May-26 10:00N 37°31' E 000°47'713.5
2017-May-26 09:30N 37°32' E 000°56'713.4
2017-May-26 08:57N 37°32' E 001°05'713.4
2017-May-26 08:26N 37°33' E 001°14'613.5
2017-May-26 07:58N 37°33' E 001°22'613.4
2017-May-26 07:30N 37°33' E 001°30'713.5
2017-May-26 06:59N 37°34' E 001°38'713.5
2017-May-26 06:31N 37°34' E 001°47'713.7
2017-May-26 06:00N 37°34' E 001°55'713.7
2017-May-26 05:30N 37°34' E 002°04'713.6
2017-May-26 05:00N 37°35' E 002°12'713.5
2017-May-26 04:30N 37°35' E 002°21'713.4
2017-May-26 04:01N 37°35' E 002°29'713.3
2017-May-26 03:30N 37°35' E 002°38'713.3
2017-May-26 03:00N 37°36' E 002°46'713.2
2017-May-26 02:30N 37°36' E 002°55'713.4
2017-May-26 02:00N 37°36' E 003°03'713.3
2017-May-26 01:31N 37°37' E 003°11'713.3
2017-May-26 00:59N 37°37' E 003°20'613.2
2017-May-26 00:31N 37°37' E 003°28'713.1
2017-May-26 00:00N 37°38' E 003°36'713.1
2017-May-25 23:31N 37°38' E 003°45'713.1
2017-May-25 23:00N 37°39' E 003°53'713.1
2017-May-25 22:30N 37°39' E 004°01'713.1
2017-May-25 22:00N 37°39' E 004°10'713.1
2017-May-25 21:29N 37°39' E 004°18'613.0
2017-May-25 21:00N 37°40' E 004°26'913.0
2017-May-25 20:17N 37°40' E 004°38'413.1
2017-May-25 20:00N 37°40' E 004°43'713.1
2017-May-25 19:28N 37°40' E 004°51'813.1
2017-May-25 18:52N 37°41' E 005°01'513.1
2017-May-25 18:30N 37°41' E 005°07'713.2
2017-May-25 17:56N 37°41' E 005°17'613.1
2017-May-25 17:30N 37°42' E 005°24'1213.2
2017-May-25 16:37N 37°42' E 005°39'213.2
2017-May-25 16:29N 37°42' E 005°41'713.2
2017-May-25 15:59N 37°42' E 005°49'1313.2
2017-May-25 14:58N 37°43' E 006°06'3613.1
2017-May-25 12:11N 37°45' E 006°52'513.2
2017-May-25 11:49N 37°45' E 006°58'513.3
2017-May-25 11:26N 37°45' E 007°05'613.4
2017-May-25 10:58N 37°45' E 007°13'1213.4
2017-May-25 10:04N 37°47' E 007°28'113.3
2017-May-25 10:00N 37°47' E 007°29'2213.3
2017-May-25 08:21N 37°48' E 007°57'513.3
2017-May-25 08:00N 37°49' E 008°03'713.4
2017-May-25 07:30N 37°49' E 008°11'713.1
2017-May-25 07:00N 37°49' E 008°19'713.2
2017-May-25 06:29N 37°48' E 008°28'613.3
2017-May-25 06:01N 37°49' E 008°36'713.0
2017-May-25 05:30N 37°49' E 008°44'712.9
2017-May-25 05:00N 37°49' E 008°53'612.6
2017-May-25 04:31N 37°49' E 009°00'812.7
2017-May-25 03:51N 37°47' E 009°10'512.5
2017-May-25 03:26N 37°46' E 009°17'612.1
2017-May-25 02:57N 37°45' E 009°24'612.2
2017-May-25 02:30N 37°44' E 009°31'612.7
2017-May-25 02:00N 37°43' E 009°39'713.1
2017-May-25 01:30N 37°41' E 009°47'713.0
2017-May-25 00:59N 37°40' E 009°55'613.0
2017-May-25 00:30N 37°39' E 010°03'912.9
2017-May-24 23:49N 37°39' E 010°14'412.6
2017-May-24 23:29N 37°39' E 010°19'1412.3
2017-May-24 22:22N 37°35' E 010°36'1512.8
2017-May-24 21:11N 37°32' E 010°55'512.8
2017-May-24 20:49N 37°31' E 011°01'412.5
2017-May-24 20:30N 37°29' E 011°06'1612.7
2017-May-24 19:15N 37°22' E 011°23'513.0
2017-May-24 18:53N 37°20' E 011°28'3013.3
2017-May-24 16:40N 37°08' E 012°02'513.3
2017-May-24 16:16N 37°06' E 012°08'1413.2
2017-May-24 15:14N 37°00' E 012°24'412.7
2017-May-24 14:57N 36°59' E 012°28'612.3
2017-May-24 14:30N 36°56' E 012°34'1212.4
2017-May-24 13:30N 36°51' E 012°48'712.9
2017-May-24 13:00N 36°48' E 012°56'812.9
2017-May-24 12:23N 36°45' E 013°05'513.0
2017-May-24 12:00N 36°43' E 013°10'713.0
2017-May-24 11:30N 36°40' E 013°18'613.0
2017-May-24 11:00N 36°38' E 013°25'612.9
2017-May-24 10:30N 36°35' E 013°33'613.0
2017-May-24 10:00N 36°32' E 013°40'612.8
2017-May-24 09:30N 36°30' E 013°47'612.8
2017-May-24 09:00N 36°27' E 013°54'612.6
2017-May-24 08:30N 36°24' E 014°01'612.6
2017-May-24 08:00N 36°22' E 014°09'612.6
2017-May-24 07:30N 36°19' E 014°16'612.5
2017-May-24 07:00N 36°17' E 014°23'612.7
2017-May-24 06:30N 36°14' E 014°30'612.2
2017-May-24 06:00N 36°11' E 014°36'612.8
2017-May-24 05:30N 36°06' E 014°41'612.8
2017-May-24 05:01N 36°01' E 014°47'3 5.3
2017-May-24 04:30N 35°59' E 014°49'0 0.4
2017-May-24 04:00N 35°59' E 014°49'0 0.3
2017-May-24 03:30N 35°59' E 014°49'1 2.9
2017-May-24 03:00N 35°59' E 014°50'0 0.1
2017-May-24 02:31N 35°59' E 014°50'0 0.0
2017-May-24 02:00N 35°59' E 014°50'0 0.0
2017-May-24 01:30N 35°59' E 014°50'0 0.1
2017-May-24 01:00N 35°59' E 014°50'0 0.0
2017-May-24 00:30N 35°59' E 014°50'0 0.0
2017-May-24 00:00N 35°59' E 014°50'0 0.0
2017-May-23 23:27N 35°59' E 014°50'0 0.1
2017-May-23 22:58N 35°59' E 014°50'0 0.1
2017-May-23 21:59N 35°58' E 014°50'0 0.0
2017-May-23 21:30N 35°58' E 014°50'0 0.0
2017-May-23 21:01N 35°58' E 014°50'0 0.0
2017-May-23 20:30N 35°58' E 014°50'0 0.0
2017-May-23 20:00N 35°58' E 014°50'0 0.0
2017-May-23 19:30N 35°58' E 014°50'0 0.0
2017-May-23 19:00N 35°58' E 014°50'0 0.1
2017-May-23 18:29N 35°58' E 014°50'0 0.0
2017-May-23 17:44N 35°58' E 014°50'0 0.0
2017-May-23 17:29N 35°58' E 014°50'0 0.1
2017-May-23 17:00N 35°58' E 014°50'0 0.0
2017-May-23 16:30N 35°58' E 014°50'0 0.0
2017-May-23 16:00N 35°58' E 014°50'0 0.0
2017-May-23 15:30N 35°58' E 014°50'0 0.0
2017-May-23 15:00N 35°58' E 014°50'0 0.0
2017-May-23 14:30N 35°58' E 014°50'0 0.0
2017-May-23 13:30N 35°58' E 014°50'0 0.0
2017-May-23 13:00N 35°58' E 014°50'0 0.0
2017-May-23 12:30N 35°58' E 014°50'0 0.1
2017-May-23 12:00N 35°58' E 014°50'0 0.1
2017-May-23 11:30N 35°58' E 014°50'0 0.0
2017-May-23 11:00N 35°58' E 014°50'0 0.0
2017-May-23 10:30N 35°58' E 014°50'0 0.0
2017-May-23 10:00N 35°58' E 014°50'0 0.0
2017-May-23 09:31N 35°58' E 014°50'0 0.0
2017-May-23 09:00N 35°58' E 014°50'0 0.0
2017-May-23 08:30N 35°58' E 014°50'0 0.0
2017-May-23 08:00N 35°59' E 014°50'0 0.0
2017-May-23 07:30N 35°59' E 014°50'0 0.0
2017-May-23 07:00N 35°59' E 014°50'0 0.0
2017-May-23 06:30N 35°59' E 014°50'0 0.0
2017-May-23 06:00N 35°59' E 014°50'0 0.1
2017-May-23 05:30N 35°59' E 014°50'1 1.2
2017-May-23 05:00N 35°59' E 014°50'1 2.7
2017-May-23 04:30N 36°00' E 014°49'2 4.8
2017-May-23 04:00N 36°02' E 014°47'2 4.3
2017-May-23 03:30N 36°03' E 014°45'0 0.4
2017-May-23 03:00N 36°03' E 014°45'0 0.3
2017-May-23 02:30N 36°03' E 014°44'0 0.4
2017-May-23 02:00N 36°03' E 014°44'0 0.1
2017-May-23 01:30N 36°03' E 014°44'510.1
2017-May-23 01:00N 36°00' E 014°49'3 6.9
2017-May-23 00:31N 35°58' E 014°51'0 0.1
2017-May-23 00:00N 35°58' E 014°52'0 0.1
2017-May-22 23:25N 35°58' E 014°52'0 0.0
2017-May-22 22:58N 35°58' E 014°52'0 0.1
2017-May-22 22:25N 35°58' E 014°52'0 0.0
2017-May-22 22:00N 35°58' E 014°52'0 0.0
2017-May-22 21:30N 35°58' E 014°52'0 0.0
2017-May-22 21:01N 35°58' E 014°52'0 0.0
2017-May-22 20:27N 35°58' E 014°52'0 0.0
2017-May-22 20:01N 35°58' E 014°52'0 0.0
2017-May-22 19:30N 35°58' E 014°52'0 0.0
2017-May-22 19:01N 35°58' E 014°52'0 0.0
2017-May-22 18:30N 35°58' E 014°52'0 0.0
2017-May-22 18:00N 35°58' E 014°52'0 0.0
2017-May-22 17:30N 35°58' E 014°52'0 0.0
2017-May-22 17:00N 35°58' E 014°52'0 0.0
2017-May-22 16:31N 35°58' E 014°52'0 0.0
2017-May-22 16:00N 35°58' E 014°52'0 0.0
2017-May-22 15:28N 35°58' E 014°52'0 0.0
2017-May-22 15:00N 35°58' E 014°52'0 0.0
2017-May-22 14:00N 35°58' E 014°52'0 0.0
2017-May-22 13:30N 35°58' E 014°52'0 0.0
2017-May-22 13:01N 35°58' E 014°52'0 0.0
2017-May-22 12:30N 35°58' E 014°52'0 0.0
2017-May-22 12:00N 35°58' E 014°52'0 0.0
2017-May-22 11:27N 35°58' E 014°52'0 0.0
2017-May-22 11:00N 35°58' E 014°52'0 0.0
2017-May-22 10:30N 35°58' E 014°52'0 0.0
2017-May-22 10:00N 35°58' E 014°52'0 0.0
2017-May-22 09:30N 35°58' E 014°52'0 0.0
2017-May-22 09:00N 35°58' E 014°52'0 0.0
2017-May-22 08:24N 35°58' E 014°52'0 0.0
2017-May-22 08:00N 35°58' E 014°52'0 0.0
2017-May-22 07:30N 35°58' E 014°52'0 0.0
2017-May-22 07:00N 35°58' E 014°52'0 0.0
2017-May-22 06:30N 35°58' E 014°52'0 0.0
2017-May-22 06:00N 35°58' E 014°52'0 0.0
2017-May-22 05:30N 35°58' E 014°52'0 0.0
2017-May-22 05:00N 35°58' E 014°52'0 0.0
2017-May-22 04:30N 35°58' E 014°52'0 0.0
2017-May-22 04:00N 35°58' E 014°52'0 0.0
2017-May-22 03:31N 35°58' E 014°52'0 0.1
2017-May-22 02:57N 35°58' E 014°52'0 0.0
2017-May-22 02:12N 35°58' E 014°52'0 0.0
2017-May-22 01:57N 35°58' E 014°52'0 0.0
2017-May-22 01:30N 35°58' E 014°52'0 0.0
2017-May-22 01:00N 35°58' E 014°52'0 0.0
2017-May-22 00:30N 35°58' E 014°52'0 0.0
2017-May-22 00:00N 35°58' E 014°52'0 0.0
2017-May-21 23:31N 35°58' E 014°52'0 0.0
2017-May-21 23:00N 35°58' E 014°52'0 0.2
2017-May-21 22:30N 35°58' E 014°52'2 4.2
2017-May-21 22:01N 35°56' E 014°53'510.0
2017-May-21 21:30N 35°51' E 014°55'1611.0
2017-May-21 20:03N 35°47' E 014°35'3 0.1
2017-May-20 08:33N 35°49' E 014°33'0 1.9
2017-May-20 08:30N 35°49' E 014°33'2 4.6
2017-May-20 08:00N 35°48' E 014°35'4 8.5
2017-May-20 07:30N 35°47' E 014°40'510.3
2017-May-20 07:00N 35°46' E 014°47'3 6.3
2017-May-20 06:29N 35°46' E 014°51'5 6.9
2017-May-20 05:49N 35°49' E 014°55'612.2
2017-May-20 05:21N 35°53' E 014°59'1112.3
2017-May-20 04:29N 36°02' E 015°06'1912.4
2017-May-20 02:57N 36°19' E 015°18'711.9
2017-May-20 02:19N 36°25' E 015°23'411.5
2017-May-20 02:00N 36°28' E 015°25'1011.5
2017-May-20 01:10N 36°38' E 015°27'211.9
2017-May-20 01:00N 36°40' E 015°27'611.9
2017-May-20 00:30N 36°46' E 015°28'711.8
2017-May-19 23:57N 36°52' E 015°30'612.0
2017-May-19 23:27N 36°58' E 015°32'  

Dump ship's entire track history